Time,TemperatureF,DewpointF,PressureIn,WindDirection,WindDirectionDegrees,WindSpeedMPH,WindSpeedGustMPH,Humidity,HourlyPrecipIn,Conditions,Clouds,dailyrainin,SoftwareType,DateUTC
2013-04-28 00:01:00,38.0,1.0,30.47,North,9,13.0,22.0,20,0.00,,,0.00,,2013-04-28 07:01:00,
2013-04-28 00:11:00,38.0,1.0,30.47,North,9,13.0,22.0,20,0.00,,,0.00,,2013-04-28 07:11:00,
2013-04-28 00:21:00,38.0,2.0,30.47,North,352,14.0,24.0,21,0.00,,,0.00,,2013-04-28 07:21:00,
2013-04-28 00:31:00,38.0,5.0,30.47,North,3,16.0,24.0,25,0.00,,,0.00,,2013-04-28 07:31:00,
2013-04-28 00:52:00,38.0,5.0,30.48,North,6,16.0,23.0,25,0.00,,,0.00,,2013-04-28 07:52:00,
2013-04-28 01:01:00,38.0,5.0,30.48,North,1,16.0,21.0,25,0.00,,,0.00,,2013-04-28 08:01:00,
2013-04-28 01:11:00,38.0,5.0,30.48,North,1,16.0,21.0,25,0.00,,,0.00,,2013-04-28 08:11:00,
2013-04-28 01:21:00,37.0,5.0,30.47,North,5,13.0,22.0,26,0.00,,,0.00,,2013-04-28 08:21:00,
2013-04-28 01:31:00,37.0,6.0,30.47,North,6,12.0,18.0,27,0.00,,,0.00,,2013-04-28 08:31:00,
2013-04-28 01:51:00,37.0,7.0,30.46,North,355,12.0,18.0,28,0.00,,,0.00,,2013-04-28 08:51:00,
2013-04-28 02:01:00,37.0,7.0,30.46,North,356,10.0,18.0,28,0.00,,,0.00,,2013-04-28 09:01:00,
2013-04-28 02:21:00,37.0,9.0,30.45,North,354,12.0,20.0,31,0.00,,,0.00,,2013-04-28 09:21:00,
2013-04-28 02:32:00,37.0,8.0,30.45,North,5,14.0,19.0,30,0.00,,,0.00,,2013-04-28 09:32:00,
2013-04-28 02:53:00,37.0,11.0,30.45,NNE,17,13.0,19.0,34,0.00,,,0.00,,2013-04-28 09:53:00,
2013-04-28 03:02:00,37.0,11.0,30.45,North,354,13.0,19.0,33,0.00,,,0.00,,2013-04-28 10:02:00,
2013-04-28 03:22:00,37.0,10.0,30.45,North,354,11.0,17.0,32,0.00,,,0.00,,2013-04-28 10:22:00,
2013-04-28 03:32:00,37.0,10.0,30.45,North,355,12.0,18.0,32,0.00,,,0.00,,2013-04-28 10:32:00,
2013-04-28 03:52:00,37.0,9.0,30.45,North,356,12.0,18.0,31,0.00,,,0.00,,2013-04-28 10:52:00,
2013-04-28 04:02:00,37.0,9.0,30.44,North,353,11.0,16.0,31,0.00,,,0.00,,2013-04-28 11:02:00,
2013-04-28 04:21:00,37.0,9.0,30.43,North,358,12.0,16.0,31,0.00,,,0.00,,2013-04-28 11:21:00,
2013-04-28 04:32:00,37.0,9.0,30.43,North,7,10.0,16.0,31,0.00,,,0.00,,2013-04-28 11:32:00,
2013-04-28 04:52:00,37.0,9.0,30.43,NNE,12,9.0,15.0,31,0.00,,,0.00,,2013-04-28 11:52:00,
2013-04-28 05:01:00,36.0,10.0,30.43,North,352,11.0,17.0,33,0.00,,,0.00,,2013-04-28 12:01:00,
2013-04-28 05:21:00,36.0,9.0,30.42,North,4,10.0,15.0,32,0.00,,,0.00,,2013-04-28 12:21:00,
2013-04-28 05:32:00,37.0,10.0,30.42,North,4,10.0,18.0,32,0.00,,,0.00,,2013-04-28 12:32:00,
2013-04-28 05:52:00,37.0,10.0,30.44,North,8,9.0,15.0,32,0.00,,,0.00,,2013-04-28 12:52:00,
2013-04-28 06:01:00,37.0,10.0,30.44,North,6,9.0,12.0,32,0.00,,,0.00,,2013-04-28 13:01:00,
2013-04-28 06:21:00,36.0,9.0,30.44,North,6,6.0,10.0,32,0.00,,,0.00,,2013-04-28 13:21:00,
2013-04-28 06:31:00,37.0,10.0,30.44,NNE,18,6.0,13.0,32,0.00,,,0.00,,2013-04-28 13:31:00,
2013-04-28 06:52:00,37.0,9.0,30.45,NE,37,6.0,11.0,31,0.00,,,0.00,,2013-04-28 13:52:00,
2013-04-28 07:01:00,37.0,9.0,30.44,NNE,25,6.0,10.0,31,0.00,,,0.00,,2013-04-28 14:01:00,
2013-04-28 07:21:00,37.0,8.0,30.44,NE,35,7.0,10.0,29,0.00,,,0.00,,2013-04-28 14:21:00,
2013-04-28 07:31:00,37.0,7.0,30.44,NE,43,6.0,10.0,28,0.00,,,0.00,,2013-04-28 14:31:00,
2013-04-28 07:52:00,37.0,5.0,30.45,NE,37,2.0,7.0,26,0.00,,,0.00,,2013-04-28 14:52:00,
2013-04-28 08:01:00,38.0,5.0,30.45,NE,39,3.0,9.0,25,0.00,,,0.00,,2013-04-28 15:01:00,
2013-04-28 08:21:00,40.0,9.0,30.45,NNW,345,4.0,8.0,27,0.00,,,0.00,,2013-04-28 15:21:00,
2013-04-28 08:32:00,40.0,9.0,30.46,North,355,1.0,5.0,27,0.00,,,0.00,,2013-04-28 15:32:00,
2013-04-28 09:03:00,40.0,12.0,30.45,WNW,297,3.0,5.0,31,0.00,,,0.00,,2013-04-28 16:03:00,
2013-04-28 09:12:00,40.0,12.0,30.45,WNW,297,3.0,5.0,31,0.00,,,0.00,,2013-04-28 16:12:00,
2013-04-28 09:23:00,40.0,10.0,30.46,West,274,2.0,6.0,29,0.00,,,0.00,,2013-04-28 16:23:00,
2013-04-28 09:32:00,40.0,10.0,30.46,NW,319,1.0,7.0,29,0.00,,,0.00,,2013-04-28 16:32:00,
2013-04-28 09:42:00,40.0,10.0,30.46,NW,319,1.0,7.0,29,0.00,,,0.00,,2013-04-28 16:42:00,
2013-04-28 09:52:00,42.0,10.0,30.46,South,188,5.0,9.0,26,0.00,,,0.00,,2013-04-28 16:52:00,
2013-04-28 10:02:00,42.0,9.0,30.46,South,186,7.0,12.0,25,0.00,,,0.00,,2013-04-28 17:02:00,
2013-04-28 10:12:00,42.0,9.0,30.46,South,186,7.0,12.0,25,0.00,,,0.00,,2013-04-28 17:12:00,
2013-04-28 10:21:00,42.0,10.0,30.46,South,183,6.0,10.0,26,0.00,,,0.00,,2013-04-28 17:21:00,
2013-04-28 10:31:00,42.0,10.0,30.46,South,189,4.0,10.0,26,0.00,,,0.00,,2013-04-28 17:31:00,
2013-04-28 10:42:00,42.0,10.0,30.46,South,189,4.0,10.0,26,0.00,,,0.00,,2013-04-28 17:42:00,
2013-04-28 10:52:00,44.0,10.0,30.47,NE,36,4.0,11.0,25,0.00,,,0.00,,2013-04-28 17:52:00,
2013-04-28 11:01:00,43.0,9.0,30.47,SW,226,6.0,15.0,24,0.00,,,0.00,,2013-04-28 18:01:00,
2013-04-28 11:12:00,43.0,9.0,30.47,SW,226,6.0,15.0,24,0.00,,,0.00,,2013-04-28 18:12:00,
2013-04-28 11:22:00,44.0,10.0,30.47,SW,219,3.0,8.0,25,0.00,,,0.00,,2013-04-28 18:22:00,
2013-04-28 11:31:00,45.0,11.0,30.47,SSW,193,8.0,16.0,25,0.00,,,0.00,,2013-04-28 18:31:00,
2013-04-28 11:42:00,45.0,11.0,30.47,SSW,193,8.0,16.0,25,0.00,,,0.00,,2013-04-28 18:42:00,
2013-04-28 11:52:00,44.0,10.0,30.47,SSW,212,6.0,15.0,24,0.00,,,0.00,,2013-04-28 18:52:00,
2013-04-28 12:01:00,44.0,10.0,30.46,South,172,7.0,14.0,25,0.00,,,0.00,,2013-04-28 19:01:00,
2013-04-28 12:11:00,44.0,10.0,30.46,South,172,7.0,14.0,25,0.00,,,0.00,,2013-04-28 19:11:00,
2013-04-28 12:21:00,46.0,12.0,30.46,North,11,2.0,9.0,25,0.00,,,0.00,,2013-04-28 19:21:00,
2013-04-28 12:31:00,47.0,13.0,30.46,SSW,204,2.0,8.0,25,0.00,,,0.00,,2013-04-28 19:31:00,
2013-04-28 12:41:00,47.0,13.0,30.46,SSW,204,2.0,8.0,25,0.00,,,0.00,,2013-04-28 19:41:00,
2013-04-28 12:52:00,46.0,10.0,30.46,West,266,5.0,17.0,23,0.00,,,0.00,,2013-04-28 19:52:00,
2013-04-28 13:01:00,47.0,11.0,30.46,WNW,287,4.0,12.0,23,0.00,,,0.00,,2013-04-28 20:01:00,
2013-04-28 13:11:00,47.0,11.0,30.46,WNW,287,4.0,12.0,23,0.00,,,0.00,,2013-04-28 20:11:00,
2013-04-28 13:21:00,47.0,12.0,30.46,NW,325,2.0,10.0,24,0.00,,,0.00,,2013-04-28 20:21:00,
2013-04-28 13:32:00,49.0,13.0,30.47,South,185,7.0,17.0,23,0.00,,,0.00,,2013-04-28 20:32:00,
2013-04-28 13:41:00,49.0,13.0,30.47,South,185,7.0,17.0,23,0.00,,,0.00,,2013-04-28 20:41:00,
2013-04-28 13:51:00,48.0,12.0,30.46,SW,228,6.0,10.0,23,0.00,,,0.00,,2013-04-28 20:51:00,
2013-04-28 14:01:00,49.0,14.0,30.47,WNW,302,4.0,10.0,24,0.00,,,0.00,,2013-04-28 21:01:00,
2013-04-28 14:11:00,49.0,14.0,30.47,WNW,302,4.0,10.0,24,0.00,,,0.00,,2013-04-28 21:11:00,
2013-04-28 14:21:00,48.0,14.0,30.45,ENE,59,2.0,10.0,25,0.00,,,0.00,,2013-04-28 21:21:00,
2013-04-28 14:32:00,50.0,15.0,30.44,South,189,7.0,16.0,24,0.00,,,0.00,,2013-04-28 21:32:00,
2013-04-28 14:42:00,50.0,15.0,30.44,South,189,7.0,16.0,24,0.00,,,0.00,,2013-04-28 21:42:00,
2013-04-28 14:52:00,49.0,12.0,30.44,WSW,241,4.0,10.0,22,0.00,,,0.00,,2013-04-28 21:52:00,
2013-04-28 15:02:00,52.0,12.0,30.44,ESE,108,3.0,8.0,20,0.00,,,0.00,,2013-04-28 22:02:00,
2013-04-28 15:12:00,52.0,12.0,30.44,ESE,108,3.0,8.0,20,0.00,,,0.00,,2013-04-28 22:12:00,
2013-04-28 15:22:00,48.0,12.0,30.43,West,262,2.0,12.0,23,0.00,,,0.00,,2013-04-28 22:22:00,
2013-04-28 15:33:00,48.0,11.0,30.42,NNE,32,3.0,8.0,22,0.00,,,0.00,,2013-04-28 22:33:00,
2013-04-28 15:42:00,48.0,11.0,30.42,NNE,32,3.0,8.0,22,0.00,,,0.00,,2013-04-28 22:42:00,
2013-04-28 15:52:00,47.0,10.0,30.42,SE,132,3.0,10.0,22,0.00,,,0.00,,2013-04-28 22:52:00,
2013-04-28 16:02:00,49.0,13.0,30.42,SE,135,2.0,13.0,23,0.00,,,0.00,,2013-04-28 23:02:00,
2013-04-28 16:11:00,49.0,13.0,30.42,SE,135,2.0,13.0,23,0.00,,,0.00,,2013-04-28 23:11:00,
2013-04-28 16:21:00,50.0,13.0,30.43,SSE,167,3.0,8.0,22,0.00,,,0.00,,2013-04-28 23:21:00,
2013-04-28 16:31:00,50.0,13.0,30.43,SSW,207,3.0,7.0,22,0.00,,,0.00,,2013-04-28 23:31:00,
2013-04-28 16:41:00,50.0,13.0,30.43,SSW,207,3.0,7.0,22,0.00,,,0.00,,2013-04-28 23:41:00,
2013-04-28 16:52:00,51.0,10.0,30.44,West,262,4.0,8.0,19,0.00,,,0.00,,2013-04-28 23:52:00,
2013-04-28 17:01:00,51.0,11.0,30.43,South,188,5.0,8.0,20,0.00,,,0.00,,2013-04-29 00:01:00,
2013-04-28 17:11:00,51.0,11.0,30.43,South,188,5.0,8.0,20,0.00,,,0.00,,2013-04-29 00:11:00,
2013-04-28 17:21:00,50.0,13.0,30.43,South,186,7.0,11.0,22,0.00,,,0.00,,2013-04-29 00:21:00,
2013-04-28 17:32:00,51.0,16.0,30.43,WSW,237,5.0,13.0,24,0.00,,,0.00,,2013-04-29 00:32:00,
2013-04-28 17:41:00,51.0,16.0,30.43,WSW,237,5.0,13.0,24,0.00,,,0.00,,2013-04-29 00:41:00,
2013-04-28 17:52:00,50.0,13.0,30.43,South,170,2.0,8.0,22,0.00,,,0.00,,2013-04-29 00:52:00,
2013-04-28 18:01:00,50.0,13.0,30.43,South,173,3.0,11.0,22,0.00,,,0.00,,2013-04-29 01:01:00,
2013-04-28 18:11:00,49.0,12.0,30.42,South,181,6.0,11.0,22,0.00,,,0.00,,2013-04-29 01:11:00,
2013-04-28 18:21:00,49.0,12.0,30.42,South,181,6.0,11.0,22,0.00,,,0.00,,2013-04-29 01:21:00,
2013-04-28 18:31:00,49.0,12.0,30.42,South,183,4.0,8.0,22,0.00,,,0.00,,2013-04-29 01:31:00,
2013-04-28 18:41:00,49.0,12.0,30.42,South,183,4.0,8.0,22,0.00,,,0.00,,2013-04-29 01:41:00,
2013-04-28 18:52:00,49.0,13.0,30.41,South,181,4.0,7.0,23,0.00,,,0.00,,2013-04-29 01:52:00,
2013-04-28 19:01:00,47.0,11.0,30.41,South,183,3.0,8.0,23,0.00,,,0.00,,2013-04-29 02:01:00,
2013-04-28 19:11:00,47.0,11.0,30.41,South,183,3.0,8.0,23,0.00,,,0.00,,2013-04-29 02:11:00,
2013-04-28 19:21:00,46.0,11.0,30.41,South,178,3.0,7.0,24,0.00,,,0.00,,2013-04-29 02:21:00,
2013-04-28 19:31:00,45.0,8.0,30.41,SSW,193,2.0,5.0,22,0.00,,,0.00,,2013-04-29 02:31:00,
2013-04-28 19:41:00,45.0,8.0,30.41,SSW,193,2.0,5.0,22,0.00,,,0.00,,2013-04-29 02:41:00,
2013-04-28 19:52:00,44.0,8.0,30.41,North,0,0.0,3.0,22,0.00,,,0.00,,2013-04-29 02:52:00,
2013-04-28 20:01:00,44.0,8.0,30.41,WSW,239,2.0,4.0,22,0.00,,,0.00,,2013-04-29 03:01:00,
2013-04-28 20:11:00,44.0,8.0,30.41,WSW,239,2.0,4.0,22,0.00,,,0.00,,2013-04-29 03:11:00,
2013-04-28 20:21:00,44.0,9.0,30.43,WNW,284,2.0,4.0,23,0.00,,,0.00,,2013-04-29 03:21:00,
2013-04-28 20:32:00,43.0,8.0,30.43,North,350,6.0,9.0,23,0.00,,,0.00,,2013-04-29 03:32:00,
2013-04-28 20:42:00,43.0,8.0,30.43,North,350,6.0,9.0,23,0.00,,,0.00,,2013-04-29 03:42:00,
2013-04-28 20:52:00,42.0,10.0,30.43,NNW,342,7.0,12.0,26,0.00,,,0.00,,2013-04-29 03:52:00,
2013-04-28 21:02:00,43.0,10.0,30.43,North,356,10.0,14.0,25,0.00,,,0.00,,2013-04-29 04:02:00,
2013-04-28 21:12:00,43.0,10.0,30.43,North,356,10.0,14.0,25,0.00,,,0.00,,2013-04-29 04:12:00,
2013-04-28 21:22:00,43.0,10.0,30.43,North,355,8.0,14.0,26,0.00,,,0.00,,2013-04-29 04:22:00,
2013-04-28 21:32:00,42.0,10.0,30.43,North,9,7.0,10.0,27,0.00,,,0.00,,2013-04-29 04:32:00,
2013-04-28 21:43:00,42.0,10.0,30.43,North,9,7.0,10.0,27,0.00,,,0.00,,2013-04-29 04:43:00,
2013-04-28 21:52:00,42.0,10.0,30.42,North,1,8.0,10.0,27,0.00,,,0.00,,2013-04-29 04:52:00,
2013-04-28 22:01:00,42.0,11.0,30.42,North,359,9.0,12.0,28,0.00,,,0.00,,2013-04-29 05:01:00,
2013-04-28 22:12:00,42.0,11.0,30.42,North,359,9.0,12.0,28,0.00,,,0.00,,2013-04-29 05:12:00,
2013-04-28 22:22:00,42.0,14.0,30.42,North,359,8.0,13.0,31,0.00,,,0.00,,2013-04-29 05:22:00,
2013-04-28 22:32:00,42.0,14.0,30.42,North,349,9.0,13.0,32,0.00,,,0.00,,2013-04-29 05:32:00,
2013-04-28 22:52:00,42.0,14.0,30.42,NNW,346,11.0,14.0,32,0.00,,,0.00,,2013-04-29 05:52:00,
2013-04-28 23:02:00,42.0,14.0,30.41,NNW,348,9.0,14.0,32,0.00,,,0.00,,2013-04-29 06:02:00,
2013-04-28 23:21:00,42.0,15.0,30.42,NNW,348,10.0,14.0,33,0.00,,,0.00,,2013-04-29 06:21:00,
2013-04-28 23:32:00,42.0,15.0,30.41,North,350,9.0,14.0,33,0.00,,,0.00,,2013-04-29 06:32:00,
2013-04-28 23:51:00,42.0,15.0,30.41,NNW,347,11.0,16.0,33,0.00,,,0.00,,2013-04-29 06:51:00,